Tuesday, October 21, 2014, 7:56 AM EDT

KPTW, Pottstown Limerick Airport

Location: Royersford, PA, United States Lat: 40.233
Local Time: 7:56 AM EDT (11:56 GMT) Lon: -75.55
Time Zone: US/Eastern Elev: 291 ft

Show me the last for .
Show Decoded

2014-10-21 06:54 METAR KPTW 211054Z AUTO 00000KT 10SM BKN060 OVC080 10/09 A2988 RMK AO2 SLP116
                 T01000089 =
2014-10-21 05:54 METAR KPTW 210954Z AUTO 00000KT 10SM BKN060 BKN075 OVC110 11/08 A2988 RMK AO2
                 RAE04 SLP115 P0000 T01060083 =
2014-10-21 04:54 METAR KPTW 210854Z AUTO 07003KT 10SM -RA FEW043 BKN065 OVC085 10/09 A2988 RMK
                 AO2 RAE34B54 SLP115 P0000 60002 T01000089 58014 =
2014-10-21 03:54 METAR KPTW 210754Z AUTO 00000KT 10SM -RA OVC070 10/09 A2990 RMK AO2 RAB11 SLP122
                 P0002 T01000094 =
2014-10-21 02:54 METAR KPTW 210654Z AUTO 00000KT 10SM SCT090 OVC110 11/08 A2992 RMK AO2
                 RAE07B31E42 SLP128 P0000 T01060083 =
2014-10-21 01:54 METAR KPTW 210554Z AUTO 10003KT 10SM -RA BKN070 OVC085 11/08 A2992 RMK AO2 RAB34
                 SLP129 P0000 60000 T01110078 10128 20089 58018 =
2014-10-21 00:54 METAR KPTW 210454Z AUTO 00000KT 10SM OVC070 12/07 A2994 RMK AO2 SLP135 T01220067
                 401561006 =
2014-10-20 23:54 METAR KPTW 210354Z AUTO VRB03KT 10SM BKN070 OVC090 13/06 A2996 RMK AO2 SLP143
                 T01280061 =
2014-10-20 22:54 METAR KPTW 210254Z AUTO 21004KT 10SM OVC095 12/06 A2997 RMK AO2 SLP148 T01220061
                 50000 =
2014-10-20 21:54 METAR KPTW 210154Z AUTO VRB03KT 10SM BKN110 13/06 A2997 RMK AO2 SLP148 T01280056
                 =
2014-10-20 20:54 METAR KPTW 210054Z AUTO 00000KT 10SM CLR 09/05 A2998 RMK AO2 SLP151 T00890050 =
2014-10-20 19:54 METAR KPTW 202354Z AUTO 00000KT 10SM CLR 09/05 A2997 RMK AO2 SLP149 T00890050
                 10156 20089 56004 =
2014-10-20 18:54 METAR KPTW 202254Z AUTO 00000KT 10SM CLR 11/04 A2998 RMK AO2 SLP150 T01060044 =
2014-10-20 17:54 METAR KPTW 202154Z AUTO 00000KT 10SM CLR 14/04 A2997 RMK AO2 SLP149 T01390039 =
2014-10-20 16:54 METAR KPTW 202054Z AUTO VRB04KT 10SM CLR 15/04 A2998 RMK AO2 SLP153 T01500039
                 56015 =
2014-10-20 15:54 METAR KPTW 201954Z AUTO 20008KT 10SM CLR 16/03 A2999 RMK AO2 SLP154 T01560033 =
2014-10-20 14:54 METAR KPTW 201854Z AUTO 21007G16KT 170V260 10SM CLR 16/03 A3001 RMK AO2 SLP160
                 T01560028 =
2014-10-20 13:54 METAR KPTW 201754Z AUTO 20007KT 10SM CLR 15/02 A3003 RMK AO2 SLP167 T01500022
                 10150 20000 58030 =
2014-10-20 12:54 METAR KPTW 201654Z AUTO 22007KT 10SM CLR 14/02 A3006 RMK AO2 SLP179 T01390022 =
2014-10-20 11:54 METAR KPTW 201554Z AUTO 19008KT 10SM CLR 12/03 A3010 RMK AO2 SLP191 T01220028 =
2014-10-20 10:54 METAR KPTW 201454Z AUTO 00000KT 10SM CLR 08/03 A3012 RMK AO2 SLP198 T00830028
                 58003 =
2014-10-20 09:54 METAR KPTW 201354Z AUTO 00000KT 10SM CLR 07/01 A3013 RMK AO2 SLP203 T00670006 =
2014-10-20 08:54 METAR KPTW 201254Z AUTO 00000KT 10SM CLR 04/02 A3014 RMK AO2 SLP205 T00440017 =

Support USWX by starting your Amazon purchase here.